»·PEaware :: N55167 L77-KSAN

N55167 :: L77-KSAN

FLIGHT INFORMATION

Flight Status: Arrived
Operator: Privately registered:
United States
More flights under this callsign
Pilot: Philip A. (19141)
Aircraft: CESSNA 172 SKYHAWK
(C172)
More flights by this aircraft type
Origin: L77 Chiriaco Summit
United States
Destination: KSAN San Diego Intl-Lindbergh
United States
More flights between these airports :: More routes between these airports
Route: +JLI V514 MZB
File this flight plan on PilotEdge
Remarks:
Altitude:
(Current/Filed)
10,000ft
Speed:
(Current/Filed)
120kts
Departed: 29-Jul-18 07:40 PM
Arrived: 29-Jul-18 08:42 PM
Distance/Time
Traveled:
93nm/1:02
Distance/Time
To Go:
Arrived

Flight Plot

Page will automatically refresh every two minutes.

Flight plan parsing failed; only flown route is shown


Map Options




Map Legend


Flown Route
Filed Route
Departure Airport
Arrival Airport
Navaid (VOR, NDB)
Fix

Horizontal Profiles

Position Reports

Time Latitude Longitude Heading Altitude Ground
Speed
29-Jul-18 19:34 33.662075 -115.718699 165 1715ft 0kts
29-Jul-18 19:35 33.662075 -115.718699 165 1715ft 0kts
29-Jul-18 19:36 33.662075 -115.718699 165 1715ft 0kts
29-Jul-18 19:37 33.662075 -115.718699 165 1715ft 0kts
29-Jul-18 19:38 33.661985 -115.718755 226 1715ft 0kts
29-Jul-18 19:39 33.662627 -115.719742 346 1715ft 15kts
29-Jul-18 19:40 33.663806 -115.716590 81 1715ft 0kts
29-Jul-18 19:41 33.665081 -115.708765 82 1814ft 68kts
29-Jul-18 19:42 33.659359 -115.694537 231 2373ft 80kts
29-Jul-18 19:43 33.654710 -115.720898 265 2970ft 82kts
29-Jul-18 19:44 33.648352 -115.742974 233 3600ft 66kts
29-Jul-18 19:45 33.640127 -115.762745 225 4071ft 68kts
29-Jul-18 19:46 33.626044 -115.776015 209 4552ft 63kts
29-Jul-18 19:47 33.616028 -115.793711 216 4964ft 67kts
29-Jul-18 19:48 33.603142 -115.809382 222 5395ft 66kts
29-Jul-18 19:49 33.591239 -115.827889 224 5671ft 80kts
29-Jul-18 19:50 33.577936 -115.851115 227 6053ft 86kts
29-Jul-18 19:51 33.563791 -115.874649 232 6465ft 87kts
29-Jul-18 19:52 33.550053 -115.898942 223 6854ft 88kts
29-Jul-18 19:53 33.533321 -115.922128 224 7173ft 96kts
29-Jul-18 19:54 33.516195 -115.948245 227 7489ft 100kts
29-Jul-18 19:55 33.499978 -115.974354 227 7882ft 95kts
29-Jul-18 19:56 33.484760 -115.999512 228 8276ft 91kts
29-Jul-18 19:57 33.470296 -116.023780 228 8643ft 89kts
29-Jul-18 19:58 33.455476 -116.048858 228 8947ft 94kts
29-Jul-18 19:59 33.440043 -116.075156 229 9249ft 98kts
29-Jul-18 20:00 33.424662 -116.101448 229 9542ft 99kts
29-Jul-18 20:01 33.408706 -116.128753 229 9842ft 100kts
29-Jul-18 20:02 33.392766 -116.156033 229 10142ft 100kts
29-Jul-18 20:03 33.376869 -116.183229 229 10442ft 99kts
29-Jul-18 20:04 33.361169 -116.210067 229 10741ft 98kts
29-Jul-18 20:05 33.343441 -116.240294 230 10634ft 130kts
29-Jul-18 20:06 33.321581 -116.277885 231 10343ft 142kts
29-Jul-18 20:07 33.299723 -116.315507 231 10043ft 134kts
29-Jul-18 20:08 33.279618 -116.349897 230 9999ft 119kts
29-Jul-18 20:09 33.260960 -116.381543 229 10019ft 118kts
29-Jul-18 20:10 33.241570 -116.414388 229 10049ft 122kts
29-Jul-18 20:11 33.221728 -116.448012 230 9951ft 131kts
29-Jul-18 20:12 33.204693 -116.476983 229 9962ft 124kts
29-Jul-18 20:13 33.181540 -116.516212 236 9997ft 126kts
29-Jul-18 20:14 33.160955 -116.551081 236 10017ft 130kts
29-Jul-18 20:15 33.139806 -116.586565 235 10028ft 132kts
29-Jul-18 20:16 33.108095 -116.598284 170 10002ft 128kts
29-Jul-18 20:17 33.072754 -116.594228 168 10002ft 127kts
29-Jul-18 20:18 33.043293 -116.595018 180 10001ft 128kts
29-Jul-18 20:19 33.008031 -116.598243 180 10001ft 126kts
29-Jul-18 20:20 32.967229 -116.602023 180 10001ft 125kts
29-Jul-18 20:21 32.933020 -116.605220 181 9996ft 119kts
29-Jul-18 20:22 32.905978 -116.607746 181 9992ft 115kts
29-Jul-18 20:23 32.874431 -116.612586 205 9977ft 119kts
29-Jul-18 20:24 32.843952 -116.637100 210 9490ft 138kts
29-Jul-18 20:25 32.812304 -116.662680 210 8996ft 135kts
29-Jul-18 20:26 32.781939 -116.687231 210 8494ft 130kts
29-Jul-18 20:27 32.752649 -116.710562 210 7782ft 122kts
29-Jul-18 20:28 32.728570 -116.736530 249 6983ft 122kts
29-Jul-18 20:29 32.719022 -116.775109 250 6186ft 121kts
29-Jul-18 20:30 32.709488 -116.812939 250 5394ft 120kts
29-Jul-18 20:31 32.700317 -116.848677 250 4981ft 101kts
29-Jul-18 20:32 32.692241 -116.880735 250 4928ft 106kts
29-Jul-18 20:33 32.690549 -116.918312 265 4532ft 112kts
29-Jul-18 20:34 32.689465 -116.954034 265 4133ft 106kts
29-Jul-18 20:35 32.686731 -116.986584 280 3978ft 87kts
29-Jul-18 20:36 32.692087 -117.011759 284 3982ft 76kts
29-Jul-18 20:37 32.699179 -117.042631 286 3740ft 109kts
29-Jul-18 20:38 32.707356 -117.074775 286 3216ft 95kts
29-Jul-18 20:39 32.714274 -117.103935 285 2559ft 88kts
29-Jul-18 20:40 32.720562 -117.130031 279 1724ft 65kts
29-Jul-18 20:41 32.724228 -117.149202 283 830ft 60kts
29-Jul-18 20:42 32.728383 -117.167850 282 273ft 58kts
29-Jul-18 20:43 32.732245 -117.183976 319 21ft 6kts
29-Jul-18 20:44 32.733733 -117.184138 14 21ft 8kts
29-Jul-18 20:45 32.735712 -117.185468 243 21ft 4kts
29-Jul-18 20:46 32.735699 -117.185497 242 21ft 0kts
29-Jul-18 20:47 32.735699 -117.185497 242 21ft 0kts

Navigation Log

Ident Type
Flight plan parsing failed, navigation log unavailable